Time;durP1;ratioP1;P1;durP2;ratioP2;P2;SDS_P1;SDS_P2;PMS_P1;PMS_P2;Temp;Humidity;BMP_temperature;BMP_pressure;BME280_temperature;BME280_humidity;BME280_pressure;Samples;Min_cycle;Max_cycle;Signal;HPM_P1;HPM_P2
2022/02/04 00:02:49;;;;;;;4.03;3.55;;;7.60;76.20;;;;;;4985647;28;20218;-79
2022/02/04 00:04:54;;;;;;;4.85;3.40;;;7.50;76.70;;;;;;4987522;28;20247;-79
2022/02/04 00:21:25;;;;;;;3.75;3.45;;;7.40;79.30;;;;;;5076808;28;20202;-78
2022/02/04 00:23:52;;;;;;;4.32;3.10;;;7.40;79.60;;;;;;5077627;28;20203;-77
2022/02/04 00:26:23;;;;;;;4.78;3.72;;;7.40;79.40;;;;;;5070631;28;20272;-78
2022/02/04 00:28:58;;;;;;;4.28;3.65;;;7.40;79.50;;;;;;5071011;28;20681;-79
2022/02/04 00:31:32;;;;;;;4.22;3.83;;;7.50;80.00;;;;;;5072779;28;20296;-77
2022/02/04 00:34:04;;;;;;;3.80;3.40;;;7.50;80.20;;;;;;5073106;28;20240;-79
2022/02/04 00:36:38;;;;;;;6.20;3.88;;;7.50;80.20;;;;;;5073443;28;20203;-79
2022/02/04 00:39:09;;;;;;;4.82;3.47;;;7.50;80.10;;;;;;5073475;28;20224;-77
2022/02/04 00:41:40;;;;;;;3.42;3.00;;;7.60;79.90;;;;;;5073308;28;20285;-78
2022/02/04 00:44:11;;;;;;;3.22;2.95;;;7.60;79.70;;;;;;5074361;28;20291;-77
2022/02/04 00:46:51;;;;;;;4.00;3.55;;;7.60;79.50;;;;;;5080847;28;20206;-79
2022/02/04 00:49:24;;;;;;;3.83;3.47;;;7.50;79.90;;;;;;5094115;28;20237;-78
2022/02/04 00:51:55;;;;;;;5.43;4.53;;;7.50;80.60;;;;;;5085667;28;20207;-78
2022/02/04 00:54:28;;;;;;;4.88;4.32;;;7.50;80.90;;;;;;5072536;28;20245;-78
2022/02/04 00:57:11;;;;;;;5.22;3.95;;;7.50;81.00;;;;;;5073073;28;20195;-77
2022/02/04 01:13:30;;;;;;;4.32;3.50;;;7.40;83.50;;;;;;5076549;28;20201;-79
2022/02/04 01:26:55;;;;;;;4.22;3.80;;;7.40;83.50;;;;;;5078711;28;20209;-78
2022/02/04 01:29:27;;;;;;;4.60;4.10;;;7.40;84.00;;;;;;5080599;28;20230;-78
2022/02/04 01:31:54;;;;;;;4.32;3.92;;;7.40;83.60;;;;;;5076586;28;20208;-78
2022/02/04 01:34:21;;;;;;;6.00;4.18;;;7.40;83.50;;;;;;5060354;28;20215;-79
2022/02/04 01:36:47;;;;;;;4.82;4.00;;;7.40;83.50;;;;;;5059881;28;20214;-79
2022/02/04 01:39:14;;;;;;;4.45;3.95;;;7.40;83.50;;;;;;5058075;28;20306;-79
2022/02/04 01:41:41;;;;;;;5.53;3.80;;;7.40;83.60;;;;;;5065923;28;20230;-78
2022/02/04 01:44:27;;;;;;;4.15;3.75;;;7.40;84.10;;;;;;5080499;28;20212;-76
2022/02/04 01:46:54;;;;;;;5.03;4.53;;;7.40;84.90;;;;;;5081399;28;20205;-77
2022/02/04 01:49:24;;;;;;;4.97;4.40;;;7.40;85.30;;;;;;5077895;28;20321;-78
2022/02/04 01:51:51;;;;;;;6.57;4.18;;;7.50;85.50;;;;;;5069152;28;20198;-78
2022/02/04 01:54:18;;;;;;;5.35;4.50;;;7.40;86.50;;;;;;5058406;28;20216;-77
2022/02/04 01:56:46;;;;;;;9.38;4.90;;;7.50;86.60;;;;;;5062199;28;20243;-77
2022/02/04 01:59:13;;;;;;;5.70;4.82;;;7.50;86.50;;;;;;5061438;28;20228;-77
2022/02/04 02:01:42;;;;;;;5.03;4.53;;;7.50;86.80;;;;;;5060303;28;20235;-77
2022/02/04 02:04:11;;;;;;;7.57;5.05;;;7.50;87.50;;;;;;5063279;28;20306;-78
2022/02/04 02:06:49;;;;;;;7.78;5.70;;;7.50;87.70;;;;;;5067921;28;20238;-78
2022/02/04 02:09:17;;;;;;;6.63;5.18;;;7.50;87.70;;;;;;5083614;28;20225;-77
2022/02/04 02:11:47;;;;;;;8.73;5.70;;;7.50;88.80;;;;;;5064025;28;20682;-78
2022/02/04 02:14:15;;;;;;;9.00;5.95;;;7.50;89.80;;;;;;5063970;28;20292;-79
2022/02/04 02:32:55;;;;;;;7.97;5.70;;;7.40;90.50;;;;;;5064069;28;20206;-79
2022/02/04 02:39:56;;;;;;;7.53;6.40;;;7.40;93.90;;;;;;5122624;27;20599;-78
2022/02/04 02:45:13;;;;;;;8.95;7.25;;;7.40;94.10;;;;;;5095484;28;20247;-78
2022/02/04 02:47:50;;;;;;;8.07;6.10;;;7.40;94.20;;;;;;5097160;28;20231;-77
2022/02/04 02:53:41;;;;;;;9.68;7.43;;;7.40;94.30;;;;;;5083108;22;20304;-80
2022/02/04 02:59:04;;;;;;;8.68;7.03;;;7.40;94.30;;;;;;5007936;28;20299;-80
2022/02/04 03:01:32;;;;;;;10.70;7.53;;;7.40;94.20;;;;;;5071294;28;20241;-79
2022/02/04 03:04:04;;;;;;;8.00;6.53;;;7.30;94.20;;;;;;5070792;28;20205;-81
2022/02/04 03:06:32;;;;;;;12.70;7.53;;;7.40;94.30;;;;;;5071691;28;20215;-80
2022/02/04 03:08:59;;;;;;;10.68;7.30;;;7.30;94.20;;;;;;5072098;28;20234;-80
2022/02/04 03:11:27;;;;;;;8.25;6.70;;;7.40;93.90;;;;;;5070062;28;20310;-80
2022/02/04 03:13:54;;;;;;;10.80;7.28;;;7.30;93.50;;;;;;5070774;28;20205;-80
2022/02/04 03:16:23;;;;;;;6.68;5.85;;;7.40;93.30;;;;;;5071897;28;20644;-79
2022/02/04 03:18:52;;;;;;;7.30;5.68;;;7.30;92.90;;;;;;5072410;28;20243;-79
2022/02/04 03:21:25;;;;;;;7.55;6.32;;;7.40;93.00;;;;;;5070272;28;20222;-81
2022/02/04 03:23:56;;;;;;;9.55;7.57;;;7.40;92.60;;;;;;5071574;28;20252;-81
2022/02/04 03:26:30;;;;;;;10.80;7.03;;;7.40;92.50;;;;;;5072328;28;20216;-81
2022/02/04 03:28:59;;;;;;;10.23;6.28;;;7.40;92.50;;;;;;5065094;28;20197;-80
2022/02/04 03:31:31;;;;;;;9.00;7.35;;;7.30;92.40;;;;;;5069942;28;20236;-80
2022/02/04 03:33:58;;;;;;;8.80;6.88;;;7.30;92.50;;;;;;5072359;28;20223;-81
2022/02/04 03:36:25;;;;;;;7.32;6.20;;;7.40;92.50;;;;;;5072794;28;20192;-78
2022/02/04 03:38:52;;;;;;;6.93;5.75;;;7.40;92.50;;;;;;5072171;28;20224;-80
2022/02/04 03:41:19;;;;;;;7.70;6.25;;;7.40;92.80;;;;;;5072949;28;20222;-80
2022/02/04 03:43:46;;;;;;;7.72;5.93;;;7.40;93.00;;;;;;5071473;28;20212;-80
2022/02/04 03:46:15;;;;;;;8.73;6.65;;;7.30;93.30;;;;;;5070481;28;20251;-80
2022/02/04 03:48:42;;;;;;;7.57;6.78;;;7.30;93.80;;;;;;5063925;28;20470;-82
2022/02/04 03:51:09;;;;;;;8.30;6.57;;;7.30;94.20;;;;;;5045980;28;20225;-81
2022/02/04 03:53:36;;;;;;;7.25;6.28;;;7.30;94.20;;;;;;5044904;28;20260;-80
2022/02/04 03:56:03;;;;;;;8.27;6.50;;;7.30;94.40;;;;;;5048900;28;20206;-81
2022/02/04 03:58:31;;;;;;;8.88;6.78;;;7.20;95.40;;;;;;5063520;28;20227;-81
2022/02/04 04:00:58;;;;;;;8.80;6.60;;;7.20;96.10;;;;;;5050724;28;20221;-81
2022/02/04 04:03:27;;;;;;;9.13;7.05;;;7.10;97.70;;;;;;5041913;28;20649;-80
2022/02/04 04:05:54;;;;;;;9.30;6.80;;;7.10;99.20;;;;;;5038946;28;20275;-79
2022/02/04 04:08:21;;;;;;;8.43;7.03;;;7.00;99.90;;;;;;5039378;28;20220;-80
2022/02/04 04:10:50;;;;;;;12.18;7.65;;;7.00;99.90;;;;;;5046091;28;20236;-80
2022/02/04 04:13:17;;;;;;;9.52;6.97;;;7.00;99.90;;;;;;5059606;28;20200;-81
2022/02/04 04:15:44;;;;;;;8.27;6.82;;;7.00;99.90;;;;;;5059321;28;20178;-81
2022/02/04 04:18:13;;;;;;;9.52;7.53;;;6.90;99.90;;;;;;5053122;28;20633;-80
2022/02/04 04:20:41;;;;;;;11.93;7.57;;;7.00;99.90;;;;;;5037748;28;20289;-80
2022/02/04 04:23:09;;;;;;;11.55;7.72;;;6.90;99.90;;;;;;5038302;28;20203;-80
2022/02/04 04:25:36;;;;;;;11.10;8.00;;;7.00;99.90;;;;;;5037778;28;20299;-81
2022/02/04 04:28:04;;;;;;;7.13;6.20;;;7.00;99.90;;;;;;5037685;28;20245;-81
2022/02/04 04:30:31;;;;;;;9.55;6.82;;;7.00;99.90;;;;;;5037672;28;20219;-80
2022/02/04 04:32:59;;;;;;;7.10;6.22;;;7.00;99.90;;;;;;5038291;28;20335;-80
2022/02/04 04:35:27;;;;;;;9.15;6.55;;;7.00;99.90;;;;;;5037909;28;20209;-81
2022/02/04 04:38:02;;;;;;;10.20;7.32;;;7.00;99.90;;;;;;5037668;28;20248;-81
2022/02/04 04:40:39;;;;;;;8.02;6.45;;;6.90;99.90;;;;;;5037928;28;20216;-81
2022/02/04 04:43:17;;;;;;;10.00;6.05;;;6.90;99.90;;;;;;5037596;28;20232;-80
2022/02/04 05:29:50;;;;;;;9.70;7.38;;;6.70;99.90;;;;;;5022746;28;20289;-79
2022/02/04 05:32:17;;;;;;;12.18;7.15;;;6.70;99.90;;;;;;5045820;28;20231;-80
2022/02/04 05:34:47;;;;;;;7.68;6.88;;;6.70;99.90;;;;;;5042206;28;20212;-80
2022/02/04 05:37:15;;;;;;;9.15;7.43;;;6.70;99.90;;;;;;5036399;28;20202;-80
2022/02/04 05:39:52;;;;;;;9.27;7.25;;;6.70;99.90;;;;;;5035628;28;20231;-80
2022/02/04 05:42:26;;;;;;;7.32;6.55;;;6.60;99.90;;;;;;5035866;28;20586;-80
2022/02/04 05:44:58;;;;;;;9.35;7.55;;;6.60;99.90;;;;;;5035629;28;20244;-80
2022/02/04 05:47:25;;;;;;;9.65;7.90;;;6.70;99.90;;;;;;5049087;28;20209;-79
2022/02/04 05:50:07;;;;;;;10.07;7.72;;;6.70;99.90;;;;;;5048746;28;20209;-80
2022/02/04 05:52:50;;;;;;;13.07;8.50;;;6.70;99.90;;;;;;5048862;28;20237;-81
2022/02/04 05:55:31;;;;;;;9.00;6.97;;;6.70;99.90;;;;;;5038191;28;20198;-80
2022/02/04 05:58:06;;;;;;;10.40;8.32;;;6.60;99.90;;;;;;5047759;28;20245;-80
2022/02/04 06:00:41;;;;;;;7.95;7.15;;;6.70;99.90;;;;;;5050707;28;20247;-81
2022/02/04 06:03:28;;;;;;;9.30;7.70;;;6.60;99.90;;;;;;5037315;28;20197;-80
2022/02/04 06:06:12;;;;;;;9.38;7.45;;;6.60;99.90;;;;;;5036737;28;20204;-80
2022/02/04 06:09:06;;;;;;;9.15;7.60;;;6.60;99.90;;;;;;5035390;28;20206;-79
2022/02/04 06:11:44;;;;;;;7.93;6.88;;;6.60;99.90;;;;;;5035681;28;20239;-80
2022/02/04 06:22:23;;;;;;;8.57;6.80;;;6.40;99.90;;;;;;5043862;28;20575;-80
2022/02/04 06:24:53;;;;;;;10.25;6.68;;;6.40;99.90;;;;;;5036126;28;20703;-80
2022/02/04 06:27:24;;;;;;;9.15;7.00;;;6.40;99.90;;;;;;5036881;28;20212;-80
2022/02/04 06:29:54;;;;;;;9.30;7.20;;;6.40;99.90;;;;;;5036462;28;20223;-81
2022/02/04 06:32:22;;;;;;;7.00;6.30;;;6.50;99.90;;;;;;5035747;28;20228;-80
2022/02/04 06:34:52;;;;;;;8.00;6.55;;;6.50;99.90;;;;;;5045368;28;20280;-80
2022/02/04 06:37:20;;;;;;;8.70;6.38;;;6.50;99.90;;;;;;5053921;28;20224;-80
2022/02/04 06:39:51;;;;;;;9.27;7.20;;;6.50;99.90;;;;;;5037083;28;20286;-79
2022/02/04 06:42:23;;;;;;;8.63;6.63;;;6.50;99.90;;;;;;5039825;28;20237;-80
2022/02/04 06:44:54;;;;;;;9.52;7.25;;;6.50;99.90;;;;;;5037531;28;20205;-81
2022/02/04 06:47:25;;;;;;;8.65;6.50;;;6.50;99.90;;;;;;5037831;28;20213;-81
2022/02/04 06:49:53;;;;;;;8.10;6.78;;;6.50;99.90;;;;;;5037138;28;20206;-81
2022/02/04 06:52:21;;;;;;;10.18;7.78;;;6.60;99.90;;;;;;5037630;28;20249;-81
2022/02/04 06:54:48;;;;;;;9.63;7.60;;;6.50;99.90;;;;;;5040605;28;20206;-81
2022/02/04 06:57:15;;;;;;;10.30;7.38;;;6.50;99.90;;;;;;5037974;28;20213;-80
2022/02/04 06:59:44;;;;;;;8.23;6.97;;;6.50;99.90;;;;;;5037034;28;20248;-79
2022/02/04 07:02:13;;;;;;;8.73;7.03;;;6.50;99.90;;;;;;5043864;28;20229;-80
2022/02/04 07:04:40;;;;;;;9.18;7.68;;;6.50;99.90;;;;;;5054243;28;20214;-81
2022/02/04 07:07:08;;;;;;;10.30;7.70;;;6.50;99.90;;;;;;5052466;28;20214;-79
2022/02/04 07:09:44;;;;;;;14.35;8.88;;;6.50;99.90;;;;;;5053491;28;20196;-79
2022/02/04 07:12:29;;;;;;;11.90;8.68;;;6.50;99.90;;;;;;5053702;28;20319;-82
2022/02/04 07:18:00;;;;;;;11.00;7.78;;;6.50;99.90;;;;;;5041619;28;20197;-81
2022/02/04 07:20:26;;;;;;;11.50;9.23;;;6.50;99.90;;;;;;5050548;28;20637;-80
2022/02/04 07:22:55;;;;;;;11.13;9.20;;;6.50;99.90;;;;;;5046250;28;20303;-80
2022/02/04 07:25:22;;;;;;;15.05;8.82;;;6.40;99.90;;;;;;5048318;28;20211;-79
2022/02/04 07:27:50;;;;;;;12.52;8.75;;;6.40;99.90;;;;;;5023016;28;20221;-79
2022/02/04 07:31:04;;;;;;;12.55;9.10;;;6.40;99.90;;;;;;5022153;28;20214;-80
2022/02/04 07:42:18;;;;;;;12.98;8.70;;;6.20;99.90;;;;;;4998933;28;20266;-80
2022/02/04 07:44:46;;;;;;;13.75;8.88;;;6.20;99.90;;;;;;4979919;28;20290;-79
2022/02/04 07:47:17;;;;;;;11.35;8.57;;;6.10;99.90;;;;;;5000826;28;20317;-81
2022/02/04 07:49:50;;;;;;;15.90;9.73;;;6.10;99.90;;;;;;5021487;28;20657;-80
2022/02/04 07:52:17;;;;;;;10.27;8.27;;;6.20;99.90;;;;;;5023752;28;20257;-80
2022/02/04 07:54:44;;;;;;;11.60;8.18;;;6.20;99.90;;;;;;5027195;28;20252;-79
2022/02/04 07:57:12;;;;;;;8.65;7.53;;;6.30;99.90;;;;;;5026505;28;20216;-80
2022/02/04 07:59:39;;;;;;;12.52;8.20;;;6.40;99.90;;;;;;5027826;28;20229;-80
2022/02/04 08:02:07;;;;;;;15.00;9.38;;;6.50;99.90;;;;;;5030433;28;20309;-81
2022/02/04 08:04:39;;;;;;;11.10;8.10;;;6.60;99.90;;;;;;5030434;28;20240;-81
2022/02/04 08:07:11;;;;;;;10.77;8.55;;;6.70;99.90;;;;;;5030901;28;20257;-81
2022/02/04 08:09:48;;;;;;;14.77;7.93;;;6.70;99.90;;;;;;5045759;28;20265;-81
2022/02/04 08:12:33;;;;;;;10.45;7.95;;;6.80;99.90;;;;;;5053305;28;20308;-80
2022/02/04 08:15:13;;;;;;;13.85;7.88;;;6.80;99.90;;;;;;5054653;28;20197;-80
2022/02/04 08:18:02;;;;;;;14.85;8.98;;;6.80;99.90;;;;;;5051942;28;20186;-81
2022/02/04 08:20:40;;;;;;;13.20;9.85;;;6.90;99.90;;;;;;5049709;28;20194;-80
2022/02/04 08:23:22;;;;;;;12.23;8.63;;;6.90;99.90;;;;;;5041791;28;20576;-79
2022/02/04 08:26:14;;;;;;;13.57;10.00;;;6.90;99.90;;;;;;5040241;28;20218;-79
2022/02/04 08:29:03;;;;;;;14.07;9.55;;;6.90;99.90;;;;;;5037277;28;20205;-78
2022/02/04 08:31:48;;;;;;;13.68;9.18;;;6.90;99.90;;;;;;5038779;28;20230;-80
2022/02/04 08:48:46;;;;;;;9.50;7.88;;;7.70;95.60;;;;;;5007444;28;20210;-77
2022/02/04 08:51:21;;;;;;;10.55;7.82;;;7.90;95.00;;;;;;5007912;28;20618;-78
2022/02/04 08:56:44;;;;;;;9.80;8.10;;;8.00;92.30;;;;;;5006572;28;20184;-78
2022/02/04 08:59:17;;;;;;;9.52;8.27;;;8.20;91.00;;;;;;4999630;28;20230;-78
2022/02/04 09:01:52;;;;;;;13.35;7.93;;;8.20;88.30;;;;;;5003766;28;20233;-77
2022/02/04 09:04:29;;;;;;;10.93;7.03;;;8.20;87.20;;;;;;5012831;28;20219;-78
2022/02/04 09:07:02;;;;;;;9.40;7.40;;;8.20;88.30;;;;;;5002103;28;20202;-76
2022/02/04 09:09:45;;;;;;;10.43;7.15;;;8.30;88.30;;;;;;5013075;28;20214;-77
2022/02/04 09:16:50;;;;;;;8.68;7.15;;;8.50;85.50;;;;;;5048241;28;20248;-77
2022/02/04 09:20:56;;;;;;;7.70;6.70;;;8.30;82.30;;;;;;5027646;28;20201;-78
2022/02/04 09:23:24;;;;;;;8.68;7.28;;;8.10;83.20;;;;;;5039203;28;20214;-78
2022/02/04 09:25:51;;;;;;;10.13;7.20;;;8.00;84.00;;;;;;5039760;28;20218;-79
2022/02/04 09:28:19;;;;;;;9.70;6.88;;;8.10;84.60;;;;;;5039413;28;20269;-77
2022/02/04 09:30:46;;;;;;;9.93;6.97;;;8.30;85.10;;;;;;5038045;28;20225;-77
2022/02/04 09:33:14;;;;;;;7.85;6.60;;;8.30;84.20;;;;;;5039517;28;20260;-78
2022/02/04 09:35:41;;;;;;;8.15;6.50;;;8.30;82.90;;;;;;5041159;28;20288;-79
2022/02/04 09:38:09;;;;;;;10.32;7.00;;;8.40;83.60;;;;;;5042591;28;20297;-78
2022/02/04 09:40:36;;;;;;;8.82;6.85;;;8.50;82.50;;;;;;5052947;28;20214;-79
2022/02/04 09:43:07;;;;;;;7.15;5.80;;;8.60;81.00;;;;;;5038905;28;20288;-79
2022/02/04 09:45:37;;;;;;;6.50;5.78;;;8.60;79.80;;;;;;5054705;28;20214;-80
2022/02/04 09:48:06;;;;;;;8.00;6.15;;;8.70;80.40;;;;;;5059450;28;20209;-77
2022/02/04 09:50:38;;;;;;;8.50;6.38;;;8.80;78.00;;;;;;5072473;28;20257;-80
2022/02/04 10:04:48;;;;;;;7.38;5.10;;;8.70;76.10;;;;;;5050814;28;20445;-79
2022/02/04 10:07:25;;;;;;;5.28;4.32;;;8.70;76.10;;;;;;5039965;28;20343;-78
2022/02/04 10:10:20;;;;;;;4.20;3.60;;;8.70;75.60;;;;;;5042302;28;20255;-77
2022/02/04 10:15:50;;;;;;;4.38;3.60;;;9.10;73.10;;;;;;5038200;28;20198;-78
2022/02/04 10:18:29;;;;;;;5.18;3.88;;;9.30;69.70;;;;;;5045240;28;20223;-78
2022/02/04 10:21:02;;;;;;;3.40;3.10;;;9.60;68.20;;;;;;5052189;28;20266;-79
2022/02/04 10:23:48;;;;;;;3.17;2.88;;;9.70;65.80;;;;;;5052585;28;20214;-79
2022/02/04 10:26:16;;;;;;;3.45;2.97;;;9.70;65.30;;;;;;5054708;28;20200;-79
2022/02/04 10:28:45;;;;;;;3.20;2.90;;;9.70;63.90;;;;;;5053133;28;20221;-76
2022/02/04 10:31:18;;;;;;;2.90;2.63;;;9.80;63.90;;;;;;5050504;28;20225;-77
2022/02/04 10:34:03;;;;;;;3.92;2.92;;;9.70;61.80;;;;;;5052865;28;20194;-76
2022/02/04 10:36:49;;;;;;;2.65;2.00;;;9.60;62.00;;;;;;5053302;28;20193;-79
2022/02/04 10:39:32;;;;;;;3.13;2.03;;;9.50;61.50;;;;;;5054053;28;20241;-78
2022/02/04 10:42:08;;;;;;;2.15;1.95;;;9.50;60.20;;;;;;5051798;28;20234;-77
2022/02/04 10:44:47;;;;;;;2.60;1.90;;;9.50;59.20;;;;;;5051825;28;20219;-79
2022/02/04 10:47:31;;;;;;;2.60;2.05;;;9.60;60.10;;;;;;5052681;28;20214;-76
2022/02/04 10:50:07;;;;;;;3.38;2.00;;;9.50;59.90;;;;;;5052103;28;20208;-78
2022/02/04 10:53:00;;;;;;;1.83;1.70;;;9.70;59.40;;;;;;5052587;28;20230;-79
2022/02/04 10:55:56;;;;;;;2.60;1.90;;;9.80;59.50;;;;;;5049553;28;20246;-77
2022/02/04 10:58:45;;;;;;;1.60;1.50;;;10.00;57.80;;;;;;5040897;28;20206;-78
2022/02/04 11:01:18;;;;;;;2.70;1.85;;;10.10;56.10;;;;;;5043294;28;20221;-77
2022/02/04 11:03:51;;;;;;;2.53;2.28;;;10.00;57.50;;;;;;5039121;28;20270;-77
2022/02/04 11:06:30;;;;;;;2.22;2.03;;;9.90;58.90;;;;;;5044499;28;20210;-75
2022/02/04 11:09:08;;;;;;;3.45;2.40;;;9.70;59.40;;;;;;5040085;28;20229;-78
2022/02/04 11:11:57;;;;;;;2.15;1.95;;;9.60;58.80;;;;;;5047819;28;20238;-78
2022/02/04 11:34:07;;;;;;;1.95;1.80;;;9.10;58.90;;;;;;5022129;28;20212;-79
2022/02/04 11:36:49;;;;;;;5.32;1.75;;;9.00;59.90;;;;;;5023668;28;20325;-78
2022/02/04 11:49:52;;;;;;;2.13;1.80;;;9.10;58.90;;;;;;5009736;28;20234;-78
2022/02/04 11:52:34;;;;;;;4.97;1.88;;;9.20;59.00;;;;;;4983813;28;20240;-77
2022/02/04 11:55:22;;;;;;;2.17;1.90;;;9.20;59.00;;;;;;4998060;28;20195;-78
2022/02/04 11:57:56;;;;;;;1.95;1.70;;;9.20;59.00;;;;;;4997705;28;20204;-78
2022/02/04 12:00:26;;;;;;;2.40;2.10;;;9.40;59.20;;;;;;4998390;28;20313;-78
2022/02/04 12:02:54;;;;;;;2.78;1.80;;;9.50;59.20;;;;;;4997506;28;20304;-78
2022/02/04 12:05:32;;;;;;;2.05;1.50;;;9.70;58.20;;;;;;4998558;28;20209;-77
2022/02/04 12:08:23;;;;;;;1.60;1.50;;;9.70;56.80;;;;;;5000027;28;20209;-77
2022/02/04 12:10:54;;;;;;;1.90;1.60;;;9.90;56.60;;;;;;4991127;28;20236;-78
2022/02/04 12:13:22;;;;;;;1.65;1.55;;;10.00;54.30;;;;;;5014720;28;20206;-80
2022/02/04 12:15:54;;;;;;;3.33;1.77;;;10.10;54.90;;;;;;5031358;28;20233;-80
2022/02/04 12:18:24;;;;;;;5.05;2.15;;;10.10;55.10;;;;;;5057421;28;20210;-81
2022/02/04 12:20:58;;;;;;;1.77;1.67;;;10.20;55.70;;;;;;5053648;28;20252;-77
2022/02/04 12:23:46;;;;;;;2.22;2.00;;;10.00;55.60;;;;;;5075484;22;20223;-75
2022/02/04 12:26:18;;;;;;;1.70;1.60;;;9.90;56.90;;;;;;5074806;28;20201;-77
2022/02/04 12:28:48;;;;;;;2.60;1.75;;;9.80;57.80;;;;;;5060242;28;20241;-76
2022/02/04 12:31:17;;;;;;;2.75;1.75;;;9.90;58.20;;;;;;5054841;28;20691;-75
2022/02/04 12:33:51;;;;;;;2.67;1.60;;;9.90;58.10;;;;;;5041946;28;20225;-77
2022/02/04 12:36:20;;;;;;;1.52;1.42;;;10.00;57.10;;;;;;5035683;28;20254;-75
2022/02/04 12:38:49;;;;;;;1.77;1.30;;;10.10;55.50;;;;;;5035606;28;20210;-77
2022/02/04 12:41:26;;;;;;;2.38;1.63;;;10.20;55.20;;;;;;5038936;28;20226;-76
2022/02/04 12:43:55;;;;;;;1.33;1.20;;;10.20;54.20;;;;;;5040787;28;20277;-77
2022/02/04 12:46:23;;;;;;;1.48;1.38;;;10.10;53.70;;;;;;5040805;28;20217;-77
2022/02/04 12:49:01;;;;;;;1.02;0.90;;;10.10;54.10;;;;;;5036462;28;20208;-76
2022/02/04 12:51:43;;;;;;;1.65;0.93;;;10.10;52.30;;;;;;5037226;28;20198;-79
2022/02/04 12:54:11;;;;;;;1.02;0.80;;;10.20;51.60;;;;;;5018797;28;20260;-76
2022/02/04 12:56:42;;;;;;;0.63;0.60;;;10.10;50.80;;;;;;5016151;28;20277;-77
2022/02/04 13:02:08;;;;;;;0.65;0.60;;;9.90;51.60;;;;;;5036024;28;20275;-76
2022/02/04 13:07:43;;;;;;;0.60;0.60;;;9.80;51.20;;;;;;5036459;28;20268;-74
2022/02/04 13:10:10;;;;;;;0.70;0.70;;;9.80;51.20;;;;;;5035466;28;20582;-76
2022/02/04 13:12:56;;;;;;;2.10;0.60;;;9.80;50.60;;;;;;5036815;28;20264;-78
2022/02/04 13:15:23;;;;;;;0.60;0.60;;;9.90;50.20;;;;;;5040130;28;20198;-78
2022/02/04 13:17:51;;;;;;;0.70;0.50;;;9.80;50.10;;;;;;5043861;28;20214;-78
2022/02/04 13:20:23;;;;;;;1.73;1.35;;;9.70;50.60;;;;;;5044302;28;20226;-79
2022/02/04 13:22:52;;;;;;;0.65;0.65;;;9.70;50.00;;;;;;5043354;28;20273;-77
2022/02/04 13:25:20;;;;;;;0.90;0.90;;;9.70;50.00;;;;;;5049023;28;20204;-78
2022/02/04 13:28:06;;;;;;;0.60;0.50;;;9.70;49.90;;;;;;5042090;28;20319;-78
2022/02/04 13:30:36;;;;;;;0.60;0.57;;;9.70;50.00;;;;;;5038494;28;20192;-79
2022/02/04 13:33:04;;;;;;;0.63;0.52;;;9.70;50.00;;;;;;5038131;28;20236;-77
2022/02/04 13:35:39;;;;;;;0.60;0.60;;;9.60;50.60;;;;;;5041898;28;20205;-79
2022/02/04 13:38:18;;;;;;;0.60;0.57;;;9.50;49.80;;;;;;5038529;28;20228;-77
2022/02/04 13:40:52;;;;;;;0.55;0.45;;;9.50;49.80;;;;;;5037311;28;20257;-77
2022/02/04 13:43:28;;;;;;;0.57;0.57;;;9.40;49.70;;;;;;5036764;28;20232;-76
2022/02/04 13:46:02;;;;;;;0.63;0.50;;;9.40;50.30;;;;;;5041347;28;20219;-78
2022/02/04 13:48:43;;;;;;;0.60;0.60;;;9.50;49.80;;;;;;5041992;28;20242;-77
2022/02/04 13:51:21;;;;;;;0.40;0.40;;;9.40;49.90;;;;;;5043939;28;20222;-78
2022/02/04 13:54:07;;;;;;;0.50;0.45;;;9.40;50.70;;;;;;5042003;28;20222;-77
2022/02/04 13:56:43;;;;;;;0.55;0.55;;;9.40;50.20;;;;;;5042975;28;20238;-76
2022/02/04 13:59:20;;;;;;;0.80;0.80;;;9.40;50.40;;;;;;5042643;28;20235;-77
2022/02/04 14:01:55;;;;;;;0.40;0.40;;;9.40;50.40;;;;;;5041964;28;20265;-76
2022/02/04 14:04:23;;;;;;;0.90;0.55;;;9.30;50.70;;;;;;5040524;28;20237;-78
2022/02/04 14:06:50;;;;;;;0.70;0.70;;;9.30;51.40;;;;;;5041611;28;20303;-80
2022/02/04 14:09:17;;;;;;;0.70;0.70;;;9.30;52.00;;;;;;5046952;28;20236;-78
2022/02/04 14:11:44;;;;;;;0.60;0.50;;;9.30;52.10;;;;;;5043786;28;20229;-78
2022/02/04 14:14:20;;;;;;;2.15;0.88;;;9.30;51.90;;;;;;5044271;28;20226;-79
2022/02/04 14:16:54;;;;;;;0.70;0.70;;;9.30;52.60;;;;;;5040863;28;20241;-77
2022/02/04 14:19:23;;;;;;;0.88;0.70;;;9.30;52.70;;;;;;5038724;28;20312;-77
2022/02/04 14:21:50;;;;;;;1.60;0.73;;;9.30;53.20;;;;;;5037255;28;20231;-77
2022/02/04 14:24:18;;;;;;;1.40;0.90;;;9.30;53.30;;;;;;5040596;28;20246;-80
2022/02/04 14:26:48;;;;;;;1.50;0.60;;;9.30;53.20;;;;;;5039974;28;20230;-79
2022/02/04 14:29:22;;;;;;;0.57;0.40;;;9.30;53.10;;;;;;5041017;28;20211;-78
2022/02/04 14:31:55;;;;;;;0.80;0.50;;;9.20;52.70;;;;;;5039555;28;20198;-77
2022/02/04 14:34:54;;;;;;;0.98;0.80;;;9.20;52.90;;;;;;5045023;28;20233;-78
2022/02/04 14:37:39;;;;;;;0.90;0.75;;;9.20;52.70;;;;;;5046769;28;20226;-78
2022/02/04 14:54:04;;;;;;;1.80;0.60;;;9.20;52.80;;;;;;5042294;28;20214;-79
2022/02/04 15:02:10;;;;;;;0.90;0.85;;;9.20;53.40;;;;;;5035625;28;20678;-78
2022/02/04 15:04:42;;;;;;;1.42;0.80;;;9.20;53.70;;;;;;5036309;28;20198;-76
2022/02/04 15:07:11;;;;;;;0.98;0.88;;;9.20;53.70;;;;;;5037257;28;20206;-76
2022/02/04 15:09:43;;;;;;;1.27;0.90;;;9.30;53.80;;;;;;5039449;28;20209;-76
2022/02/04 15:12:12;;;;;;;1.00;1.00;;;9.30;53.80;;;;;;5038580;28;20569;-75
2022/02/04 15:14:39;;;;;;;2.28;1.00;;;9.30;53.80;;;;;;5038044;28;20210;-78
2022/02/04 15:17:08;;;;;;;0.80;0.73;;;9.20;54.10;;;;;;5038112;28;20220;-76
2022/02/04 15:19:36;;;;;;;0.73;0.60;;;9.20;53.90;;;;;;5039310;28;20245;-76
2022/02/04 15:22:07;;;;;;;0.73;0.70;;;9.20;54.30;;;;;;5036887;28;20640;-76
2022/02/04 15:24:35;;;;;;;2.00;0.77;;;9.30;54.10;;;;;;5030995;28;20261;-77
2022/02/04 15:27:03;;;;;;;1.80;0.77;;;9.40;53.50;;;;;;5030380;28;20242;-77
2022/02/04 15:29:32;;;;;;;0.88;0.88;;;9.40;53.00;;;;;;5030162;28;20665;-77
2022/02/04 15:32:00;;;;;;;1.05;0.70;;;9.40;52.60;;;;;;5029783;28;20206;-76
2022/02/04 15:34:29;;;;;;;0.77;0.77;;;9.40;52.50;;;;;;5032265;28;20289;-77
2022/02/04 15:36:56;;;;;;;1.42;0.80;;;9.40;52.70;;;;;;5032548;28;20219;-77
2022/02/04 15:39:26;;;;;;;1.20;0.80;;;9.40;52.70;;;;;;5032341;28;20260;-78
2022/02/04 15:41:55;;;;;;;5.07;0.73;;;9.30;52.60;;;;;;5032726;28;20220;-77
2022/02/04 15:44:35;;;;;;;1.63;0.68;;;9.30;52.40;;;;;;5032411;28;20293;-76
2022/02/04 15:52:52;;;;;;;2.78;0.70;;;9.20;53.50;;;;;;5030148;28;20218;-77
2022/02/04 16:01:22;;;;;;;1.02;0.90;;;9.00;53.80;;;;;;5017904;28;20237;-77
2022/02/04 16:04:03;;;;;;;0.90;0.88;;;9.00;54.10;;;;;;5041639;28;20223;-77
2022/02/04 16:06:31;;;;;;;2.20;1.02;;;9.00;53.90;;;;;;5039935;28;20201;-76
2022/02/04 16:08:58;;;;;;;0.77;0.77;;;8.90;54.00;;;;;;5039600;28;20279;-78
2022/02/04 16:14:17;;;;;;;1.33;0.75;;;8.90;54.00;;;;;;5034361;28;20304;-78
2022/02/04 16:16:49;;;;;;;0.77;0.77;;;8.90;54.00;;;;;;5034294;28;20269;-75
2022/02/04 16:19:27;;;;;;;1.30;0.80;;;9.00;54.10;;;;;;5036747;28;20194;-76
2022/02/04 16:30:21;;;;;;;1.30;0.70;;;8.90;54.00;;;;;;4997455;28;20318;-77
2022/02/04 16:32:48;;;;;;;3.28;1.00;;;8.90;54.00;;;;;;4996058;28;20242;-77
2022/02/04 16:35:15;;;;;;;1.00;0.90;;;8.90;54.50;;;;;;4994769;28;20310;-76
2022/02/04 16:37:50;;;;;;;1.48;1.15;;;8.80;55.30;;;;;;4997023;28;20208;-77
2022/02/04 16:40:19;;;;;;;1.00;0.80;;;8.70;55.80;;;;;;4997007;28;20255;-79
2022/02/04 16:42:47;;;;;;;0.77;0.75;;;8.70;56.80;;;;;;4998240;28;20382;-76
2022/02/04 16:45:14;;;;;;;1.60;1.00;;;8.70;57.00;;;;;;4999250;28;20209;-78
2022/02/04 16:47:41;;;;;;;0.75;0.75;;;8.60;57.50;;;;;;4999213;28;20213;-79
2022/02/04 16:50:10;;;;;;;0.90;0.90;;;8.60;58.40;;;;;;5005874;28;20209;-76
2022/02/04 16:52:37;;;;;;;0.88;0.88;;;8.50;58.70;;;;;;5008520;28;20285;-76
2022/02/04 16:55:07;;;;;;;1.35;0.90;;;8.40;59.70;;;;;;5015264;28;20212;-77
2022/02/04 16:57:34;;;;;;;0.90;0.90;;;8.30;61.50;;;;;;5042385;28;20296;-76
2022/02/04 17:00:09;;;;;;;1.30;1.00;;;8.30;62.70;;;;;;5038837;28;20208;-77
2022/02/04 17:02:36;;;;;;;1.02;0.82;;;8.20;63.50;;;;;;5040715;28;20256;-77
2022/02/04 17:05:04;;;;;;;1.10;0.80;;;8.20;63.80;;;;;;5054811;28;20224;-77
2022/02/04 17:07:35;;;;;;;1.08;0.98;;;8.20;64.10;;;;;;5049256;28;20639;-78
2022/02/04 17:10:03;;;;;;;1.85;0.90;;;8.20;64.30;;;;;;5054742;28;20208;-77
2022/02/04 17:12:41;;;;;;;1.10;1.00;;;8.10;65.40;;;;;;5052447;28;20216;-77
2022/02/04 17:15:08;;;;;;;1.55;1.45;;;8.10;66.20;;;;;;5036909;28;20216;-77
2022/02/04 17:17:35;;;;;;;5.40;1.00;;;8.10;66.90;;;;;;5035923;28;20272;-78
2022/02/04 17:20:08;;;;;;;4.10;1.05;;;8.10;66.90;;;;;;5035325;28;20234;-76
2022/02/04 17:22:36;;;;;;;0.93;0.80;;;8.10;66.90;;;;;;5034518;28;20234;-77
2022/02/04 17:25:08;;;;;;;0.77;0.77;;;8.00;68.20;;;;;;5034858;28;20231;-77
2022/02/04 17:27:37;;;;;;;0.88;0.88;;;8.00;69.70;;;;;;5034812;28;20209;-77
2022/02/04 17:30:05;;;;;;;0.70;0.65;;;8.00;69.10;;;;;;5034633;28;20732;-76
2022/02/04 17:32:32;;;;;;;1.00;0.70;;;8.00;70.20;;;;;;5035520;28;20253;-76